Time;durP1;ratioP1;P1;durP2;ratioP2;P2;SDS_P1;SDS_P2;PMS_P1;PMS_P2;Temp;Humidity;BMP_temperature;BMP_pressure;BME280_temperature;BME280_humidity;BME280_pressure;Samples;Min_cycle;Max_cycle;Signal;HPM_P1;HPM_P2
2019/06/15 00:00:52;;;;;;;12.7;7.2;;;;;;;17.8;82.55078;995.5353;;;;
2019/06/15 00:03:17;;;;;;;15.9;8;;;;;;;17.68;83.04102;995.5709;;;;
2019/06/15 00:05:42;;;;;;;13.4;7.7;;;;;;;17.65;82.93066;995.4741;;;;
2019/06/15 00:08:07;;;;;;;15.6;8.1;;;;;;;17.66;82.73535;995.384;;;;
2019/06/15 00:10:32;;;;;;;14;7.6;;;;;;;17.68;82.48438;995.3452;;;;
2019/06/15 00:12:57;;;;;;;11.9;7.9;;;;;;;17.65;82.53516;995.494;;;;
2019/06/15 00:15:22;;;;;;;13.9;7.8;;;;;;;17.6;82.52539;995.5211;;;;
2019/06/15 00:17:47;;;;;;;15.1;7.8;;;;;;;17.63;82.76465;995.5834;;;;
2019/06/15 00:20:12;;;;;;;14.4;7.5;;;;;;;17.57;83.02051;995.5647;;;;
2019/06/15 00:22:37;;;;;;;13.2;7.8;;;;;;;17.59;83.15234;995.509;;;;
2019/06/15 00:25:03;;;;;;;13.2;7.7;;;;;;;17.58;83.17383;995.4885;;;;
2019/06/15 00:27:28;;;;;;;11.8;7.8;;;;;;;17.46;83.25391;995.4855;;;;
2019/06/15 00:29:53;;;;;;;14.3;8.1;;;;;;;17.33;84.06738;995.4656;;;;
2019/06/15 00:32:18;;;;;;;11.6;8;;;;;;;17.39;83.59082;995.5804;;;;
2019/06/15 00:34:43;;;;;;;15.7;8.9;;;;;;;17.31;84.22852;995.4916;;;;
2019/06/15 00:37:08;;;;;;;14.5;8.3;;;;;;;17.54;83.28125;995.3948;;;;
2019/06/15 00:39:33;;;;;;;12.8;7.8;;;;;;;17.47;83.7793;995.4006;;;;
2019/06/15 00:41:58;;;;;;;14.6;8.5;;;;;;;17.31;84.38965;995.356;;;;
2019/06/15 00:44:23;;;;;;;15.7;8.6;;;;;;;17.28;84.15234;995.3373;;;;
2019/06/15 00:46:48;;;;;;;14.4;8.1;;;;;;;17.32;84.31152;995.4387;;;;
2019/06/15 00:49:13;;;;;;;13.1;8.7;;;;;;;17.25;84.62207;995.4394;;;;
2019/06/15 00:51:39;;;;;;;15.8;9.1;;;;;;;17.28;84.41895;995.3334;;;;
2019/06/15 00:54:04;;;;;;;13.3;8;;;;;;;17.26;84.32129;995.2935;;;;
2019/06/15 00:56:29;;;;;;;13.7;8.8;;;;;;;17.09;84.97559;995.3016;;;;
2019/06/15 00:58:54;;;;;;;16;9.6;;;;;;;17.08;84.9375;995.2444;;;;
2019/06/15 01:01:19;;;;;;;14.3;8.9;;;;;;;17.09;84.83594;995.1939;;;;
2019/06/15 01:03:44;;;;;;;14.7;8.9;;;;;;;17.18;84.8291;995.1273;;;;
2019/06/15 01:06:09;;;;;;;16.2;9.8;;;;;;;17.08;85.08984;995.1483;;;;
2019/06/15 01:08:34;;;;;;;14.6;9.8;;;;;;;16.97;85.50879;995.0765;;;;
2019/06/15 01:10:59;;;;;;;15.6;9.9;;;;;;;16.96;85.58887;994.9537;;;;
2019/06/15 01:13:25;;;;;;;16.3;9.5;;;;;;;16.94;85.75977;994.9501;;;;
2019/06/15 01:15:50;;;;;;;16.9;9.7;;;;;;;16.96;85.76465;994.8558;;;;
2019/06/15 01:18:15;;;;;;;18.1;9.4;;;;;;;17.07;85.2373;994.7813;;;;
2019/06/15 01:20:40;;;;;;;15.1;9.7;;;;;;;17.03;85.49805;994.8084;;;;
2019/06/15 01:23:06;;;;;;;16.8;10.1;;;;;;;16.98;85.82422;994.8528;;;;
2019/06/15 01:25:31;;;;;;;16.1;9.4;;;;;;;17.06;85.5166;994.7393;;;;
2019/06/15 01:27:56;;;;;;;18.5;9.8;;;;;;;17.06;85.46875;994.7067;;;;
2019/06/15 01:30:23;;;;;;;18.6;10.2;;;;;;;17.08;85.44824;994.7324;;;;
2019/06/15 01:32:47;;;;;;;19.3;10.5;;;;;;;17.05;85.64258;994.6976;;;;
2019/06/15 01:35:14;;;;;;;20;10;;;;;;;17.07;85.64453;994.7194;;;;
2019/06/15 01:37:39;;;;;;;14.7;9.7;;;;;;;17.14;85.37012;994.7575;;;;
2019/06/15 01:40:04;;;;;;;19;10.8;;;;;;;17.22;84.94238;994.7026;;;;
2019/06/15 01:42:30;;;;;;;17.7;11.1;;;;;;;17.12;85.41113;994.628;;;;
2019/06/15 01:44:55;;;;;;;17.6;10.9;;;;;;;17.12;85.46875;994.637;;;;
2019/06/15 01:47:20;;;;;;;20.6;11.2;;;;;;;17.13;85.51758;994.6189;;;;
2019/06/15 01:49:45;;;;;;;20.5;11.9;;;;;;;17.19;85.38965;994.6141;;;;
2019/06/15 01:52:10;;;;;;;21.8;12.6;;;;;;;17.2;85.33398;994.7304;;;;
2019/06/15 01:54:35;;;;;;;19.9;12.6;;;;;;;17.15;85.46484;994.704;;;;
2019/06/15 01:57:03;;;;;;;19.6;12;;;;;;;17.17;85.41016;994.7347;;;;
2019/06/15 01:59:28;;;;;;;20.7;12.1;;;;;;;17.15;85.48633;994.7667;;;;
2019/06/15 02:01:54;;;;;;;19;12;;;;;;;17.16;85.46484;994.8175;;;;
2019/06/15 02:04:19;;;;;;;20.2;12;;;;;;;17.13;85.55176;994.8605;;;;
2019/06/15 02:06:44;;;;;;;20.7;12.5;;;;;;;17.18;85.53906;994.802;;;;
2019/06/15 02:09:11;;;;;;;20.7;12.7;;;;;;;17.21;85.43848;994.82;;;;
2019/06/15 02:11:36;;;;;;;19.7;12.3;;;;;;;17.23;85.37207;994.8128;;;;
2019/06/15 02:14:03;;;;;;;18.7;12.3;;;;;;;17.25;85.28418;994.7743;;;;
2019/06/15 02:16:28;;;;;;;24.2;12.7;;;;;;;17.22;85.52344;994.8042;;;;
2019/06/15 02:18:53;;;;;;;17.7;11.6;;;;;;;17.26;85.19531;994.7722;;;;
2019/06/15 02:21:18;;;;;;;22;12;;;;;;;17.24;85.3291;994.7861;;;;
2019/06/15 02:23:43;;;;;;;19.6;12.4;;;;;;;17.22;85.59277;994.848;;;;
2019/06/15 02:26:08;;;;;;;18.7;11.6;;;;;;;17.06;86.2373;994.942;;;;
2019/06/15 02:28:33;;;;;;;18.7;11.6;;;;;;;17.06;86.24902;994.9512;;;;
2019/06/15 02:30:58;;;;;;;20.8;12.5;;;;;;;17.02;86.54199;994.9707;;;;
2019/06/15 02:33:24;;;;;;;19.6;11.8;;;;;;;17.04;86.16406;995.0825;;;;
2019/06/15 02:35:49;;;;;;;18.6;12;;;;;;;16.95;86.96973;995.1273;;;;
2019/06/15 02:38:14;;;;;;;18.2;12.1;;;;;;;16.91;86.91602;995.1656;;;;
2019/06/15 02:40:39;;;;;;;20.3;12.2;;;;;;;16.94;86.74707;995.2087;;;;
2019/06/15 02:43:05;;;;;;;20.5;12.6;;;;;;;16.93;86.89648;995.335;;;;
2019/06/15 02:45:30;;;;;;;19.4;11.9;;;;;;;17.11;86.12988;995.5446;;;;
2019/06/15 02:47:55;;;;;;;22.1;11.9;;;;;;;17.12;86.14355;995.7463;;;;
2019/06/15 02:50:20;;;;;;;22.3;12.6;;;;;;;17.14;86.03223;996.3375;;;;
2019/06/15 02:52:45;;;;;;;23.2;13;;;;;;;17.15;85.8252;996.4766;;;;
2019/06/15 02:55:10;;;;;;;19.6;11.7;;;;;;;17.27;84.89258;996.6602;;;;
2019/06/15 02:57:35;;;;;;;17.9;10.2;;;;;;;17.29;84.4082;996.692;;;;
2019/06/15 03:00:02;;;;;;;15.3;9.5;;;;;;;17.34;83.85059;996.6387;;;;
2019/06/15 03:02:27;;;;;;;15.8;9.9;;;;;;;17.21;84.33398;996.962;;;;
2019/06/15 03:04:52;;;;;;;16.6;10.1;;;;;;;17.16;84.46484;997.0829;;;;
2019/06/15 03:07:17;;;;;;;16.4;10.2;;;;;;;17.03;85.02148;997.1936;;;;
2019/06/15 03:09:42;;;;;;;19.2;11;;;;;;;17.03;85.22949;997.3143;;;;
2019/06/15 03:12:07;;;;;;;20.1;12.1;;;;;;;16.89;85.91309;997.3683;;;;
2019/06/15 03:14:33;;;;;;;22.6;11.9;;;;;;;16.88;85.97949;997.5195;;;;
2019/06/15 03:16:58;;;;;;;18;12.2;;;;;;;16.83;86.15625;997.4467;;;;
2019/06/15 03:19:23;;;;;;;19;11.8;;;;;;;16.87;85.93066;997.4918;;;;
2019/06/15 03:21:48;;;;;;;19.7;10.8;;;;;;;16.87;85.6543;997.4318;;;;
2019/06/15 03:24:14;;;;;;;20;10.6;;;;;;;16.84;85.47266;997.399;;;;
2019/06/15 03:26:39;;;;;;;16.5;9.6;;;;;;;16.86;85.02539;997.498;;;;
2019/06/15 03:29:05;;;;;;;21;9.2;;;;;;;16.89;84.89063;997.541;;;;
2019/06/15 03:31:30;;;;;;;17.9;9;;;;;;;16.93;84.55078;997.5832;;;;
2019/06/15 03:33:55;;;;;;;17.4;9.2;;;;;;;16.96;84.37988;997.6724;;;;
2019/06/15 03:36:21;;;;;;;15.7;8.8;;;;;;;17;84.12012;997.7793;;;;
2019/06/15 03:38:46;;;;;;;17.5;8.7;;;;;;;16.97;84.26758;997.8558;;;;
2019/06/15 03:41:11;;;;;;;14.2;8.1;;;;;;;17.03;84.00879;997.8663;;;;
2019/06/15 03:43:37;;;;;;;18;7.9;;;;;;;17.05;83.99121;997.8981;;;;
2019/06/15 03:46:02;;;;;;;13.1;7.7;;;;;;;17.12;83.60938;997.8954;;;;
2019/06/15 03:48:27;;;;;;;15.5;6.7;;;;;;;17.22;83.25684;997.8706;;;;
2019/06/15 03:50:52;;;;;;;14;7;;;;;;;17.26;82.7998;997.9727;;;;
2019/06/15 03:53:17;;;;;;;14.1;6.5;;;;;;;17.36;82.53906;997.9904;;;;
2019/06/15 03:55:42;;;;;;;13.9;6.8;;;;;;;17.47;82.08105;997.9266;;;;
2019/06/15 03:58:07;;;;;;;14.6;6.8;;;;;;;17.46;81.84668;997.9967;;;;
2019/06/15 04:02:28;;;;;;;14.2;6.8;;;;;;;17.59;81.59082;998.1478;;;;
2019/06/15 04:04:53;;;;;;;15.4;6.9;;;;;;;17.68;81.30664;998.1458;;;;
2019/06/15 04:07:19;;;;;;;12.8;6.8;;;;;;;17.62;81.4834;998.1803;;;;
2019/06/15 04:09:44;;;;;;;15.6;7.2;;;;;;;17.68;81.04102;998.1716;;;;
2019/06/15 04:12:09;;;;;;;13.4;6.7;;;;;;;17.81;80.66699;998.2448;;;;
2019/06/15 04:14:34;;;;;;;11.8;6.9;;;;;;;17.77;80.49707;998.2791;;;;
2019/06/15 04:16:59;;;;;;;11.2;6.1;;;;;;;17.87;80.52832;998.23;;;;
2019/06/15 04:19:24;;;;;;;11.1;6.6;;;;;;;17.85;80.16309;998.323;;;;
2019/06/15 04:21:49;;;;;;;10.7;6.6;;;;;;;17.85;80.44238;998.3019;;;;
2019/06/15 04:24:14;;;;;;;13.5;6.8;;;;;;;17.87;80.36426;998.34;;;;
2019/06/15 04:26:39;;;;;;;12.3;6.5;;;;;;;17.94;80.17969;998.4584;;;;
2019/06/15 04:29:04;;;;;;;13.7;7.1;;;;;;;17.92;80.15234;998.4742;;;;
2019/06/15 04:31:29;;;;;;;13.4;7.6;;;;;;;17.88;80.19141;998.4811;;;;
2019/06/15 04:33:55;;;;;;;17;7.5;;;;;;;17.89;80.46191;998.601;;;;
2019/06/15 04:36:20;;;;;;;15.7;7.3;;;;;;;17.98;80.06934;998.562;;;;
2019/06/15 04:38:45;;;;;;;15.4;7.8;;;;;;;17.94;80.21387;998.5441;;;;
2019/06/15 04:41:10;;;;;;;12.3;7.1;;;;;;;18.02;79.97266;998.5187;;;;
2019/06/15 04:43:35;;;;;;;14.2;7.5;;;;;;;18.17;79.61621;998.5708;;;;
2019/06/15 04:46:00;;;;;;;14.8;7.7;;;;;;;18.07;79.72656;998.624;;;;
2019/06/15 04:48:25;;;;;;;10.9;7.1;;;;;;;18.01;79.9375;998.7097;;;;
2019/06/15 04:50:50;;;;;;;12.9;7.4;;;;;;;18.07;79.88965;998.7067;;;;
2019/06/15 04:53:15;;;;;;;11.6;6.5;;;;;;;18.18;79.22168;998.6805;;;;
2019/06/15 04:55:40;;;;;;;11.3;6.9;;;;;;;18.13;79.50293;998.5883;;;;
2019/06/15 04:58:05;;;;;;;12.1;7.3;;;;;;;18.13;79.28223;998.5027;;;;
2019/06/15 05:00:30;;;;;;;14.5;7.1;;;;;;;18.24;78.96387;998.3736;;;;
2019/06/15 05:02:56;;;;;;;11.2;7;;;;;;;18.36;78.40137;998.4998;;;;
2019/06/15 05:05:21;;;;;;;13.1;6.8;;;;;;;18.4;78.01367;998.5553;;;;
2019/06/15 05:07:46;;;;;;;11.7;6.6;;;;;;;18.35;78.36719;998.5658;;;;
2019/06/15 05:10:12;;;;;;;12.9;6.4;;;;;;;18.57;77.34277;998.5001;;;;
2019/06/15 05:12:37;;;;;;;10.1;5.6;;;;;;;18.52;77.21973;998.4827;;;;
2019/06/15 05:15:02;;;;;;;12.4;6.4;;;;;;;18.4;77.79395;998.5753;;;;
2019/06/15 05:17:27;;;;;;;13.3;5.7;;;;;;;18.47;77.61816;998.6512;;;;
2019/06/15 05:19:52;;;;;;;10.4;6.4;;;;;;;18.5;77.4248;998.5733;;;;
2019/06/15 05:22:17;;;;;;;14.4;6.7;;;;;;;18.56;77.43555;998.6699;;;;
2019/06/15 05:24:42;;;;;;;12.2;5.9;;;;;;;18.61;77.41992;998.7756;;;;
2019/06/15 05:27:07;;;;;;;11.5;6.3;;;;;;;18.59;77.33594;998.7731;;;;
2019/06/15 05:29:32;;;;;;;9.3;6.2;;;;;;;18.61;77.28027;998.7281;;;;
2019/06/15 05:31:57;;;;;;;12.2;6.4;;;;;;;18.71;77.08984;998.7936;;;;
2019/06/15 05:34:22;;;;;;;11.6;6;;;;;;;18.74;77.10547;998.8059;;;;
2019/06/15 05:36:47;;;;;;;11.5;6.1;;;;;;;18.88;76.43066;998.8719;;;;
2019/06/15 05:39:14;;;;;;;12.3;6.3;;;;;;;18.91;76.49414;998.8836;;;;
2019/06/15 05:41:39;;;;;;;11.2;5.9;;;;;;;18.93;76.20508;998.865;;;;
2019/06/15 05:44:04;;;;;;;10.1;5.8;;;;;;;18.99;76.14648;998.8006;;;;
2019/06/15 05:46:30;;;;;;;12.3;6.3;;;;;;;19.01;76.10254;998.8831;;;;
2019/06/15 05:48:55;;;;;;;9.4;6;;;;;;;19.02;75.92871;998.9221;;;;
2019/06/15 05:51:20;;;;;;;8.2;5.6;;;;;;;19.37;74.59961;998.9842;;;;
2019/06/15 05:53:45;;;;;;;7.4;5;;;;;;;19.79;72.69531;999.0833;;;;
2019/06/15 05:56:10;;;;;;;10.3;5.2;;;;;;;20.03;71.78613;999.0522;;;;
2019/06/15 05:58:36;;;;;;;8.2;4.8;;;;;;;20.48;70.1377;999.1002;;;;
2019/06/15 06:01:01;;;;;;;9.8;4.9;;;;;;;20.73;68.89844;999.2087;;;;
2019/06/15 06:03:26;;;;;;;8.8;5.1;;;;;;;20.71;69.0498;999.1697;;;;
2019/06/15 06:05:52;;;;;;;9;5;;;;;;;20.89;68.16309;999.2562;;;;
2019/06/15 06:08:17;;;;;;;8.6;5.1;;;;;;;21.09;67.57227;999.2647;;;;
2019/06/15 06:10:42;;;;;;;8.6;4.8;;;;;;;21.35;66.9082;999.3314;;;;
2019/06/15 06:13:08;;;;;;;8.2;4.6;;;;;;;21.16;67.07813;999.4816;;;;
2019/06/15 06:15:33;;;;;;;9.3;4.8;;;;;;;20.9;67.59082;999.5183;;;;
2019/06/15 06:17:59;;;;;;;10.3;4.9;;;;;;;20.6;69.18555;999.5708;;;;
2019/06/15 06:20:24;;;;;;;11;5.1;;;;;;;20.43;69.70898;999.6926;;;;
2019/06/15 06:22:49;;;;;;;11.8;5.3;;;;;;;20.34;70.11426;999.7316;;;;
2019/06/15 06:25:14;;;;;;;9.5;5.1;;;;;;;19.97;71.34277;999.7512;;;;
2019/06/15 06:27:39;;;;;;;9.5;5.8;;;;;;;19.94;71.54883;999.7942;;;;
2019/06/15 06:30:04;;;;;;;8.7;5.1;;;;;;;19.95;71.39844;999.7903;;;;
2019/06/15 06:32:30;;;;;;;9.5;5.1;;;;;;;20.01;71.36133;999.8831;;;;
2019/06/15 06:34:55;;;;;;;8.5;4.9;;;;;;;20.19;70.50098;999.9096;;;;
2019/06/15 06:37:20;;;;;;;7.9;4.4;;;;;;;20.31;70.54297;999.9742;;;;
2019/06/15 06:39:45;;;;;;;10.2;4.7;;;;;;;20.68;68.69238;999.9766;;;;
2019/06/15 06:42:10;;;;;;;8.5;4.2;;;;;;;21.27;66.66309;1000.048;;;;
2019/06/15 06:44:35;;;;;;;7.6;4.5;;;;;;;21.18;66.95313;1000.041;;;;
2019/06/15 06:47:00;;;;;;;6.2;4;;;;;;;21.28;65.86523;1000.144;;;;
2019/06/15 06:49:25;;;;;;;7.8;4.5;;;;;;;20.89;67.02637;1000.215;;;;
2019/06/15 06:51:50;;;;;;;8.5;3.9;;;;;;;21.26;66.1084;1000.235;;;;
2019/06/15 06:54:16;;;;;;;8.7;3.8;;;;;;;21.62;64.09473;1000.375;;;;
2019/06/15 06:56:41;;;;;;;8.1;3.6;;;;;;;22.16;62.45801;1000.401;;;;
2019/06/15 06:59:06;;;;;;;6.8;3.2;;;;;;;22.95;59.82422;1000.466;;;;
2019/06/15 07:01:31;;;;;;;9.3;3.3;;;;;;;23.82;56.76758;1000.477;;;;
2019/06/15 07:03:56;;;;;;;5.1;2.7;;;;;;;24.65;53.125;1000.525;;;;
2019/06/15 07:06:22;;;;;;;6.7;3;;;;;;;24.15;55.33398;1000.515;;;;
2019/06/15 07:08:47;;;;;;;5.5;2.8;;;;;;;25.79;50.73633;1000.613;;;;
2019/06/15 07:11:12;;;;;;;4.8;2.7;;;;;;;26.9;47.76172;1000.573;;;;
2019/06/15 07:13:37;;;;;;;4.4;2.5;;;;;;;26.46;48.5459;1000.735;;;;
2019/06/15 07:16:02;;;;;;;4.5;2.8;;;;;;;24.6;52.85938;1000.617;;;;
2019/06/15 07:18:27;;;;;;;6.3;2.6;;;;;;;23.68;55.7002;1000.763;;;;
2019/06/15 07:20:53;;;;;;;3.8;2.4;;;;;;;23.58;56.67871;1000.804;;;;
2019/06/15 07:23:18;;;;;;;6.3;2.9;;;;;;;23.43;57.28223;1000.845;;;;
2019/06/15 07:25:43;;;;;;;6.3;3;;;;;;;23.15;58.32031;1000.812;;;;
2019/06/15 07:28:08;;;;;;;5.5;2.5;;;;;;;22.51;59.56543;1000.874;;;;
2019/06/15 07:30:33;;;;;;;4.3;2.4;;;;;;;22.6;59.58984;1000.927;;;;
2019/06/15 07:32:58;;;;;;;5.1;2.4;;;;;;;22.34;60.3291;1000.911;;;;
2019/06/15 07:35:23;;;;;;;7.4;2.9;;;;;;;22;61.30664;1000.988;;;;
2019/06/15 07:37:49;;;;;;;4.8;2.3;;;;;;;21.97;61.34863;1001.074;;;;
2019/06/15 07:40:14;;;;;;;4.8;2.1;;;;;;;21.39;63.19336;1001.058;;;;
2019/06/15 07:42:39;;;;;;;4;2.3;;;;;;;21.25;63.5957;1001.021;;;;
2019/06/15 07:45:04;;;;;;;4.5;2.1;;;;;;;21.45;63.22559;1000.978;;;;
2019/06/15 07:47:29;;;;;;;5;2.4;;;;;;;21.84;62.11816;1001.065;;;;
2019/06/15 07:49:54;;;;;;;3.3;2.1;;;;;;;21.88;62.26563;1001.169;;;;
2019/06/15 07:52:19;;;;;;;4;2.7;;;;;;;22.53;60.07422;1001.105;;;;
2019/06/15 07:54:44;;;;;;;4;2.1;;;;;;;21.89;62.00879;1001.173;;;;
2019/06/15 07:57:10;;;;;;;5.4;2.5;;;;;;;21.44;63.88086;1001.272;;;;
2019/06/15 07:59:36;;;;;;;5;2.4;;;;;;;21.26;64.33594;1001.282;;;;
2019/06/15 08:02:01;;;;;;;5.4;2.1;;;;;;;22.45;60.75684;1001.272;;;;
2019/06/15 08:04:27;;;;;;;4.9;2.7;;;;;;;23.21;58.86816;1001.321;;;;
2019/06/15 08:06:52;;;;;;;3.9;2.2;;;;;;;24.06;55.14453;1001.361;;;;
2019/06/15 08:09:17;;;;;;;5.2;2.4;;;;;;;24.48;54.12109;1001.331;;;;
2019/06/15 08:11:43;;;;;;;4.8;2.5;;;;;;;24.88;51.28418;1001.409;;;;
2019/06/15 08:14:08;;;;;;;3.6;2;;;;;;;24.04;53.82031;1001.416;;;;
2019/06/15 08:16:34;;;;;;;3.1;2;;;;;;;23.79;55.3125;1001.39;;;;
2019/06/15 08:18:59;;;;;;;3.9;2;;;;;;;24.06;54.12988;1001.485;;;;
2019/06/15 08:21:24;;;;;;;3;2;;;;;;;23.33;56.12793;1001.504;;;;
2019/06/15 08:23:49;;;;;;;5.3;2.4;;;;;;;23.13;57.29199;1001.62;;;;
2019/06/15 08:26:14;;;;;;;3.6;2;;;;;;;23.23;56.8916;1001.59;;;;
2019/06/15 08:28:39;;;;;;;5.7;2.1;;;;;;;23.08;57.39063;1001.654;;;;
2019/06/15 08:31:04;;;;;;;3.3;2.1;;;;;;;23.54;56.54297;1001.684;;;;
2019/06/15 08:33:30;;;;;;;2.9;1.8;;;;;;;24.79;53.16602;1001.71;;;;
2019/06/15 08:35:55;;;;;;;3.4;1.8;;;;;;;25.4;51.39063;1001.726;;;;
2019/06/15 08:38:20;;;;;;;6.7;2.1;;;;;;;26.46;48.33203;1001.68;;;;
2019/06/15 08:40:45;;;;;;;5.2;2.3;;;;;;;26.7;48.34473;1001.656;;;;
2019/06/15 08:43:10;;;;;;;4.6;2.1;;;;;;;28.08;44.62305;1001.695;;;;
2019/06/15 08:45:35;;;;;;;3.6;2.1;;;;;;;27.6;45.80078;1001.669;;;;
2019/06/15 08:48:00;;;;;;;4.7;2.2;;;;;;;26.44;47.89063;1001.71;;;;
2019/06/15 08:50:25;;;;;;;4.3;2;;;;;;;26.67;47.77246;1001.73;;;;
2019/06/15 08:52:51;;;;;;;5.7;2.2;;;;;;;25.86;49.96191;1001.757;;;;
2019/06/15 08:55:16;;;;;;;4;2.3;;;;;;;24.96;52.58301;1001.725;;;;
2019/06/15 08:57:41;;;;;;;3.1;2.2;;;;;;;24.25;54.75586;1001.719;;;;
2019/06/15 09:00:06;;;;;;;4.5;2.5;;;;;;;24.19;54.91309;1001.731;;;;
2019/06/15 09:02:31;;;;;;;5.1;2.1;;;;;;;23.94;55.43652;1001.793;;;;
2019/06/15 09:04:56;;;;;;;4.2;2.1;;;;;;;23.27;57.7002;1001.83;;;;
2019/06/15 09:07:21;;;;;;;5.8;2.2;;;;;;;23.21;57.97266;1001.882;;;;
2019/06/15 09:09:46;;;;;;;5.5;2.4;;;;;;;23.08;58.81641;1001.912;;;;
2019/06/15 09:12:11;;;;;;;4.5;2.4;;;;;;;23.1;58.37207;1002.005;;;;
2019/06/15 09:14:37;;;;;;;3.8;2;;;;;;;23;58.40625;1001.975;;;;
2019/06/15 09:17:02;;;;;;;3.2;2;;;;;;;22.51;59.98926;1002.078;;;;
2019/06/15 09:19:27;;;;;;;4;2.2;;;;;;;22.57;59.64355;1002.076;;;;
2019/06/15 09:21:52;;;;;;;3.4;1.8;;;;;;;22.6;60.04688;1002.101;;;;
2019/06/15 09:24:17;;;;;;;3.3;1.9;;;;;;;22.71;59.70996;1002.088;;;;
2019/06/15 09:26:43;;;;;;;4.1;2.4;;;;;;;23.09;58.69922;1002.128;;;;
2019/06/15 09:29:08;;;;;;;4.7;2.4;;;;;;;23.31;57.39746;1002.127;;;;
2019/06/15 09:31:33;;;;;;;4.4;2.3;;;;;;;23.07;56.21191;1002.053;;;;
2019/06/15 09:33:58;;;;;;;3.3;2.2;;;;;;;22.76;57.4209;1002.155;;;;
2019/06/15 09:36:26;;;;;;;3.9;2.3;;;;;;;22.87;57.22266;1002.154;;;;
2019/06/15 09:38:51;;;;;;;4.5;2.1;;;;;;;22.7;57.31934;1002.194;;;;
2019/06/15 09:41:16;;;;;;;3.4;2;;;;;;;23.07;56.28223;1002.107;;;;
2019/06/15 09:43:42;;;;;;;3;2;;;;;;;23.54;55.39941;1002.1;;;;
2019/06/15 09:46:08;;;;;;;5.6;2.1;;;;;;;24.13;54.0791;1002.119;;;;
2019/06/15 09:48:34;;;;;;;4.3;2.1;;;;;;;24.74;51.96582;1002.161;;;;
2019/06/15 09:50:59;;;;;;;3.6;2.1;;;;;;;25.35;49.68066;1002.15;;;;
2019/06/15 09:53:24;;;;;;;5.1;2.1;;;;;;;25.69;47.76367;1002.244;;;;
2019/06/15 09:55:49;;;;;;;3.5;2;;;;;;;25.37;48.22656;1002.195;;;;
2019/06/15 09:58:15;;;;;;;2.6;1.8;;;;;;;24.57;50.26758;1002.209;;;;
2019/06/15 10:00:40;;;;;;;3.6;1.8;;;;;;;24.38;50.76563;1002.261;;;;
2019/06/15 10:03:06;;;;;;;2.6;1.7;;;;;;;24.04;50.93945;1002.128;;;;
2019/06/15 10:05:31;;;;;;;2.9;1.5;;;;;;;24.24;50.98633;1002.277;;;;
2019/06/15 10:07:56;;;;;;;3.1;1.5;;;;;;;24.3;50.52051;1002.327;;;;
2019/06/15 10:10:23;;;;;;;2.8;1.8;;;;;;;24.57;50.38477;1002.243;;;;
2019/06/15 10:12:48;;;;;;;4.3;1.7;;;;;;;24.68;50.52832;1002.282;;;;
2019/06/15 10:15:13;;;;;;;2.9;1.5;;;;;;;24.43;50.48828;1002.332;;;;
2019/06/15 10:17:38;;;;;;;8.2;1.8;;;;;;;24.25;51.25977;1002.415;;;;
2019/06/15 10:20:03;;;;;;;2.3;1.8;;;;;;;24.04;51.91992;1002.398;;;;
2019/06/15 10:22:29;;;;;;;1.9;1.7;;;;;;;24.17;51.65137;1002.442;;;;
2019/06/15 10:24:54;;;;;;;1.7;1.5;;;;;;;24.55;50.04102;1002.522;;;;
2019/06/15 10:27:19;;;;;;;1.9;1.6;;;;;;;24.63;49.76563;1002.602;;;;
2019/06/15 10:29:45;;;;;;;2.1;1.6;;;;;;;24.39;50.21289;1002.54;;;;
2019/06/15 10:32:10;;;;;;;2.6;1.6;;;;;;;24.76;49.18945;1002.541;;;;
2019/06/15 10:34:35;;;;;;;1.7;1.6;;;;;;;25.65;47.3916;1002.582;;;;
2019/06/15 10:37:00;;;;;;;3.4;1.5;;;;;;;25.56;46.49316;1002.616;;;;
2019/06/15 10:39:25;;;;;;;2.6;1.4;;;;;;;24.94;48.08594;1002.647;;;;
2019/06/15 10:41:50;;;;;;;2.1;1.4;;;;;;;24.92;48.12988;1002.538;;;;
2019/06/15 10:44:15;;;;;;;3.5;1.5;;;;;;;24.83;48.67676;1002.6;;;;
2019/06/15 10:46:40;;;;;;;2.9;1.5;;;;;;;24.92;48.18945;1002.653;;;;
2019/06/15 10:49:05;;;;;;;3.6;1.7;;;;;;;24.92;47.79883;1002.639;;;;
2019/06/15 10:51:31;;;;;;;1.6;1.4;;;;;;;24.79;48.28223;1002.605;;;;
2019/06/15 10:53:57;;;;;;;4.3;1.5;;;;;;;24.67;48.2334;1002.686;;;;
2019/06/15 10:56:22;;;;;;;2.5;1.6;;;;;;;24.98;47.8418;1002.607;;;;
2019/06/15 10:58:47;;;;;;;3;1.7;;;;;;;25.07;47.43652;1002.644;;;;
2019/06/15 11:01:12;;;;;;;1.8;1.4;;;;;;;24.91;48.21094;1002.597;;;;
2019/06/15 11:03:37;;;;;;;2.5;1.6;;;;;;;24.73;48.96094;1002.67;;;;
2019/06/15 11:06:04;;;;;;;2.5;1.6;;;;;;;24.55;49.4375;1002.711;;;;
2019/06/15 11:08:29;;;;;;;2;1.3;;;;;;;24.47;48.69629;1002.694;;;;
2019/06/15 11:10:54;;;;;;;2.8;1.4;;;;;;;24.75;48.52441;1002.602;;;;
2019/06/15 11:13:19;;;;;;;2.7;1.4;;;;;;;25.36;46.75684;1002.615;;;;
2019/06/15 11:15:44;;;;;;;3.5;1.5;;;;;;;25.82;46.44922;1002.611;;;;
2019/06/15 11:18:10;;;;;;;2.9;1.7;;;;;;;25.19;48.06445;1002.613;;;;
2019/06/15 11:20:34;;;;;;;2.2;1.3;;;;;;;25.06;47.22168;1002.583;;;;
2019/06/15 11:22:59;;;;;;;2.5;1.4;;;;;;;24.35;49.60645;1002.659;;;;
2019/06/15 11:25:24;;;;;;;2;1.1;;;;;;;24.63;49.57813;1002.668;;;;
2019/06/15 11:27:49;;;;;;;1.4;1.3;;;;;;;24.94;48.43945;1002.681;;;;
2019/06/15 11:30:14;;;;;;;1.6;1.3;;;;;;;24.72;48.73535;1002.743;;;;
2019/06/15 11:32:39;;;;;;;2.5;1.4;;;;;;;24.98;48.69336;1002.687;;;;
2019/06/15 11:35:05;;;;;;;2;1.3;;;;;;;25.18;47.51953;1002.779;;;;
2019/06/15 11:37:30;;;;;;;2.1;1.2;;;;;;;24.63;47.59082;1002.766;;;;
2019/06/15 11:39:55;;;;;;;2.9;1.4;;;;;;;23.99;49.81348;1002.822;;;;
2019/06/15 11:42:20;;;;;;;1.8;1.4;;;;;;;24.19;50.15527;1002.784;;;;
2019/06/15 11:44:46;;;;;;;2.4;1.3;;;;;;;24.72;49.55176;1002.851;;;;
2019/06/15 11:47:11;;;;;;;2.9;1.6;;;;;;;24.39;49.80957;1002.831;;;;
2019/06/15 11:49:36;;;;;;;1.6;1.3;;;;;;;23.73;50.75098;1002.819;;;;
2019/06/15 11:52:01;;;;;;;2;1.4;;;;;;;23.75;50.82422;1002.789;;;;
2019/06/15 11:54:26;;;;;;;1.8;1.4;;;;;;;23.81;51.42188;1002.794;;;;
2019/06/15 11:56:51;;;;;;;1.6;1.4;;;;;;;23.56;52.31152;1002.835;;;;
2019/06/15 11:59:16;;;;;;;2.7;1.6;;;;;;;23.99;52.125;1002.884;;;;
2019/06/15 12:01:41;;;;;;;2.1;1.5;;;;;;;23.73;52.29688;1002.829;;;;
2019/06/15 12:04:07;;;;;;;2.4;1.9;;;;;;;23.64;53.0293;1002.846;;;;
2019/06/15 12:06:32;;;;;;;2.5;1.7;;;;;;;24.37;50.72852;1002.852;;;;
2019/06/15 12:08:57;;;;;;;2.5;1.7;;;;;;;24.92;49.45508;1002.795;;;;
2019/06/15 12:11:22;;;;;;;2.4;1.7;;;;;;;25.47;47.82227;1002.769;;;;
2019/06/15 12:13:47;;;;;;;2.1;1.5;;;;;;;25.65;47.99512;1002.779;;;;
2019/06/15 12:16:12;;;;;;;2.1;1.4;;;;;;;26.15;47.17188;1002.791;;;;
2019/06/15 12:18:37;;;;;;;2.2;1.5;;;;;;;25.46;48.12891;1002.702;;;;
2019/06/15 12:21:02;;;;;;;2.2;1.6;;;;;;;25.15;47.93066;1002.749;;;;
2019/06/15 12:23:28;;;;;;;2.5;1.7;;;;;;;24.86;49.31836;1002.853;;;;
2019/06/15 12:25:53;;;;;;;1.7;1.6;;;;;;;25.13;47.58496;1002.704;;;;
2019/06/15 12:28:21;;;;;;;2.6;1.6;;;;;;;24.82;49.03027;1002.666;;;;
2019/06/15 12:30:46;;;;;;;1.9;1.6;;;;;;;24.96;48.4668;1002.651;;;;
2019/06/15 12:33:11;;;;;;;1.6;1.5;;;;;;;25.56;47.61914;1002.663;;;;
2019/06/15 12:35:37;;;;;;;1.8;1.4;;;;;;;26.21;44.38965;1002.621;;;;
2019/06/15 12:38:02;;;;;;;1.8;1.5;;;;;;;25.72;45.15918;1002.656;;;;
2019/06/15 12:40:27;;;;;;;1.7;1.3;;;;;;;25.15;46.20313;1002.627;;;;
2019/06/15 12:42:52;;;;;;;1.4;1.3;;;;;;;25.31;46.34863;1002.69;;;;
2019/06/15 12:45:17;;;;;;;3.2;1.5;;;;;;;25.29;47.0459;1002.673;;;;
2019/06/15 12:47:42;;;;;;;1.4;1.3;;;;;;;25.19;47.5918;1002.641;;;;
2019/06/15 12:50:07;;;;;;;2.2;1.6;;;;;;;24.95;46.93945;1002.597;;;;
2019/06/15 12:52:33;;;;;;;1.5;1.4;;;;;;;24.93;46.48633;1002.602;;;;
2019/06/15 12:54:57;;;;;;;3;1.4;;;;;;;25.46;45.78418;1002.679;;;;
2019/06/15 12:57:22;;;;;;;2.7;1.2;;;;;;;25.37;45.19531;1002.615;;;;
2019/06/15 12:59:48;;;;;;;1.4;1.2;;;;;;;25.39;44.94824;1002.624;;;;
2019/06/15 13:02:13;;;;;;;2.1;1.2;;;;;;;25.39;45.2207;1002.583;;;;
2019/06/15 13:04:38;;;;;;;2.8;1.2;;;;;;;25.68;44.14746;1002.554;;;;
2019/06/15 13:07:03;;;;;;;1.6;1.4;;;;;;;25.42;45.40137;1002.585;;;;
2019/06/15 13:09:28;;;;;;;1.9;1.3;;;;;;;25.56;45.10742;1002.539;;;;
2019/06/15 13:11:53;;;;;;;1.4;1.2;;;;;;;25.44;45.10742;1002.587;;;;
2019/06/15 13:14:18;;;;;;;1.8;1.4;;;;;;;25.41;45.1875;1002.582;;;;
2019/06/15 13:16:43;;;;;;;1.5;1.4;;;;;;;25.48;44.87402;1002.537;;;;
2019/06/15 13:19:08;;;;;;;1.4;1.2;;;;;;;25.09;45.93652;1002.612;;;;
2019/06/15 13:21:33;;;;;;;1.5;1.4;;;;;;;25.07;46.24219;1002.591;;;;
2019/06/15 13:23:58;;;;;;;1.6;1.5;;;;;;;24.99;46.02148;1002.537;;;;
2019/06/15 13:26:24;;;;;;;1.5;1.4;;;;;;;25.18;45.62598;1002.472;;;;
2019/06/15 13:28:49;;;;;;;2.5;1.5;;;;;;;25.38;45.29199;1002.352;;;;
2019/06/15 13:31:14;;;;;;;1.9;1.6;;;;;;;25.27;46.20313;1002.362;;;;
2019/06/15 13:33:39;;;;;;;1.6;1.5;;;;;;;25.46;46.37695;1002.375;;;;
2019/06/15 13:36:04;;;;;;;1.7;1.5;;;;;;;25.75;45.51758;1002.298;;;;
2019/06/15 13:38:29;;;;;;;1.6;1.5;;;;;;;25.82;45.13379;1002.377;;;;
2019/06/15 13:40:54;;;;;;;1.7;1.6;;;;;;;25.56;45.14355;1002.323;;;;
2019/06/15 13:43:19;;;;;;;3.5;1.6;;;;;;;25.76;45.28125;1002.473;;;;
2019/06/15 13:45:44;;;;;;;3.3;1.6;;;;;;;25.86;44.94824;1002.474;;;;
2019/06/15 13:48:09;;;;;;;2.4;1.6;;;;;;;25.89;44.84473;1002.496;;;;
2019/06/15 13:50:35;;;;;;;2.2;1.7;;;;;;;25.72;45.23047;1002.453;;;;
2019/06/15 13:53:00;;;;;;;2.4;1.8;;;;;;;26.36;44.51172;1002.506;;;;
2019/06/15 13:55:25;;;;;;;1.7;1.6;;;;;;;26.31;44.26953;1002.498;;;;
2019/06/15 13:57:52;;;;;;;1.6;1.5;;;;;;;25.66;45.72266;1002.457;;;;
2019/06/15 14:00:17;;;;;;;1.9;1.7;;;;;;;26.06;45.45508;1002.461;;;;
2019/06/15 14:02:43;;;;;;;1.7;1.6;;;;;;;25.61;45.46875;1002.439;;;;
2019/06/15 14:05:08;;;;;;;1.9;1.7;;;;;;;25.82;44.70703;1002.402;;;;
2019/06/15 14:07:33;;;;;;;3.1;1.7;;;;;;;26.16;43.92188;1002.395;;;;